sensor_id;sensor_type;location;lat;lon;timestamp;pressure;altitude;pressure_sealevel;temperature;humidity
36138;BME280;67787;50.074;21.904;2023-05-23T00:01:12;98983.20;;;10.07;59.94
36138;BME280;67787;50.074;21.904;2023-05-23T00:03:41;98979.80;;;10.06;60.02
36138;BME280;67787;50.074;21.904;2023-05-23T00:06:09;98977.64;;;10.03;59.95
36138;BME280;67787;50.074;21.904;2023-05-23T00:08:37;98976.80;;;10.03;59.95
36138;BME280;67787;50.074;21.904;2023-05-23T00:11:05;98978.36;;;10.01;60.02
36138;BME280;67787;50.074;21.904;2023-05-23T00:13:33;98976.83;;;9.95;60.12
36138;BME280;67787;50.074;21.904;2023-05-23T00:16:02;98973.48;;;9.90;60.13
36138;BME280;67787;50.074;21.904;2023-05-23T00:18:30;98973.34;;;9.87;60.23
36138;BME280;67787;50.074;21.904;2023-05-23T00:20:58;98970.14;;;9.87;60.23
36138;BME280;67787;50.074;21.904;2023-05-23T00:23:26;98968.45;;;9.86;60.25
36138;BME280;67787;50.074;21.904;2023-05-23T00:25:56;98962.63;;;9.85;60.31
36138;BME280;67787;50.074;21.904;2023-05-23T00:28:25;98963.77;;;9.81;60.33
36138;BME280;67787;50.074;21.904;2023-05-23T00:30:53;98962.73;;;9.74;60.31
36138;BME280;67787;50.074;21.904;2023-05-23T00:33:21;98961.62;;;9.67;60.34
36138;BME280;67787;50.074;21.904;2023-05-23T00:35:50;98961.80;;;9.62;60.47
36138;BME280;67787;50.074;21.904;2023-05-23T00:38:18;98961.19;;;9.58;60.58
36138;BME280;67787;50.074;21.904;2023-05-23T00:40:46;98955.95;;;9.57;60.54
36138;BME280;67787;50.074;21.904;2023-05-23T00:43:15;98955.60;;;9.59;60.65
36138;BME280;67787;50.074;21.904;2023-05-23T00:45:43;98955.80;;;9.59;60.67
36138;BME280;67787;50.074;21.904;2023-05-23T00:48:11;98956.77;;;9.58;60.66
36138;BME280;67787;50.074;21.904;2023-05-23T00:50:39;98956.15;;;9.54;60.78
36138;BME280;67787;50.074;21.904;2023-05-23T00:53:07;98954.45;;;9.48;60.79
36138;BME280;67787;50.074;21.904;2023-05-23T00:55:35;98958.23;;;9.42;60.92
36138;BME280;67787;50.074;21.904;2023-05-23T00:58:04;98951.44;;;9.37;60.89
36138;BME280;67787;50.074;21.904;2023-05-23T01:00:33;98954.73;;;9.33;60.96
36138;BME280;67787;50.074;21.904;2023-05-23T01:03:02;98958.52;;;9.37;61.07
36138;BME280;67787;50.074;21.904;2023-05-23T01:05:30;98962.31;;;9.41;61.07
36138;BME280;67787;50.074;21.904;2023-05-23T01:07:58;98962.00;;;9.41;61.10
36138;BME280;67787;50.074;21.904;2023-05-23T01:10:28;98961.66;;;9.38;61.10
36138;BME280;67787;50.074;21.904;2023-05-23T01:13:12;98959.87;;;9.38;61.15
36138;BME280;67787;50.074;21.904;2023-05-23T01:20:55;98954.71;;;9.36;61.33
36138;BME280;67787;50.074;21.904;2023-05-23T01:23:39;98947.55;;;9.32;61.44
36138;BME280;67787;50.074;21.904;2023-05-23T01:26:31;98950.46;;;9.26;61.33
36138;BME280;67787;50.074;21.904;2023-05-23T01:29:07;98951.00;;;9.18;61.50
36138;BME280;67787;50.074;21.904;2023-05-23T01:31:42;98952.98;;;9.15;61.54
36138;BME280;67787;50.074;21.904;2023-05-23T01:34:13;98950.45;;;9.13;61.49
36138;BME280;67787;50.074;21.904;2023-05-23T01:36:42;98947.15;;;9.15;61.68
36138;BME280;67787;50.074;21.904;2023-05-23T01:39:10;98948.40;;;9.15;61.48
36138;BME280;67787;50.074;21.904;2023-05-23T01:41:38;98944.47;;;9.13;61.53
36138;BME280;67787;50.074;21.904;2023-05-23T01:44:07;98942.05;;;9.12;61.56
36138;BME280;67787;50.074;21.904;2023-05-23T01:46:36;98944.38;;;9.12;61.58
36138;BME280;67787;50.074;21.904;2023-05-23T01:49:08;98943.46;;;9.09;61.64
36138;BME280;67787;50.074;21.904;2023-05-23T01:51:38;98941.29;;;9.04;61.63
36138;BME280;67787;50.074;21.904;2023-05-23T01:54:06;98936.98;;;8.98;61.62
36138;BME280;67787;50.074;21.904;2023-05-23T01:56:34;98936.81;;;8.92;61.79
36138;BME280;67787;50.074;21.904;2023-05-23T01:59:02;98940.38;;;8.90;61.78
36138;BME280;67787;50.074;21.904;2023-05-23T02:01:32;98937.65;;;8.88;61.85
36138;BME280;67787;50.074;21.904;2023-05-23T02:04:00;98936.15;;;8.84;61.86
36138;BME280;67787;50.074;21.904;2023-05-23T02:06:27;98931.52;;;8.85;61.93
36138;BME280;67787;50.074;21.904;2023-05-23T02:08:55;98927.52;;;8.83;61.86
36138;BME280;67787;50.074;21.904;2023-05-23T02:11:23;98929.38;;;8.87;62.06
36138;BME280;67787;50.074;21.904;2023-05-23T02:13:52;98928.86;;;8.85;62.02
36138;BME280;67787;50.074;21.904;2023-05-23T02:16:19;98925.62;;;8.77;61.92
36138;BME280;67787;50.074;21.904;2023-05-23T02:18:48;98926.94;;;8.73;61.99
36138;BME280;67787;50.074;21.904;2023-05-23T02:21:19;98925.46;;;8.69;62.08
36138;BME280;67787;50.074;21.904;2023-05-23T02:23:47;98921.87;;;8.67;62.24
36138;BME280;67787;50.074;21.904;2023-05-23T02:26:15;98915.73;;;8.64;62.26
36138;BME280;67787;50.074;21.904;2023-05-23T02:28:44;98913.80;;;8.61;62.41
36138;BME280;67787;50.074;21.904;2023-05-23T02:31:12;98914.89;;;8.58;62.35
36138;BME280;67787;50.074;21.904;2023-05-23T02:33:40;98911.05;;;8.60;62.26
36138;BME280;67787;50.074;21.904;2023-05-23T02:36:07;98909.20;;;8.61;62.43
36138;BME280;67787;50.074;21.904;2023-05-23T02:38:35;98906.54;;;8.64;62.51
36138;BME280;67787;50.074;21.904;2023-05-23T02:41:04;98908.70;;;8.63;62.39
36138;BME280;67787;50.074;21.904;2023-05-23T02:43:32;98910.55;;;8.62;62.46
36138;BME280;67787;50.074;21.904;2023-05-23T02:45:59;98911.11;;;8.64;62.54
36138;BME280;67787;50.074;21.904;2023-05-23T02:48:27;98911.49;;;8.64;62.56
36138;BME280;67787;50.074;21.904;2023-05-23T02:50:55;98909.86;;;8.59;62.49
36138;BME280;67787;50.074;21.904;2023-05-23T02:53:23;98903.77;;;8.60;62.66
36138;BME280;67787;50.074;21.904;2023-05-23T02:55:51;98903.41;;;8.63;62.76
36138;BME280;67787;50.074;21.904;2023-05-23T02:58:19;98901.75;;;8.61;62.56
36138;BME280;67787;50.074;21.904;2023-05-23T03:00:47;98900.56;;;8.58;62.75
36138;BME280;67787;50.074;21.904;2023-05-23T03:03:15;98903.87;;;8.61;62.81
36138;BME280;67787;50.074;21.904;2023-05-23T03:05:44;98902.79;;;8.68;62.91
36138;BME280;67787;50.074;21.904;2023-05-23T03:08:12;98908.00;;;8.72;62.86
36138;BME280;67787;50.074;21.904;2023-05-23T03:10:40;98907.99;;;8.76;62.98
36138;BME280;67787;50.074;21.904;2023-05-23T03:13:08;98907.88;;;8.84;62.94
36138;BME280;67787;50.074;21.904;2023-05-23T03:15:36;98905.96;;;8.88;62.97
36138;BME280;67787;50.074;21.904;2023-05-23T03:18:03;98908.27;;;8.93;62.98
36138;BME280;67787;50.074;21.904;2023-05-23T03:20:31;98899.35;;;9.00;63.03
36138;BME280;67787;50.074;21.904;2023-05-23T03:22:59;98897.87;;;9.06;63.15
36138;BME280;67787;50.074;21.904;2023-05-23T03:25:27;98897.34;;;9.08;63.02
36138;BME280;67787;50.074;21.904;2023-05-23T03:27:55;98898.73;;;9.14;63.06
36138;BME280;67787;50.074;21.904;2023-05-23T03:30:23;98895.35;;;9.22;63.23
36138;BME280;67787;50.074;21.904;2023-05-23T03:32:50;98896.02;;;9.28;63.16
36138;BME280;67787;50.074;21.904;2023-05-23T03:35:20;98895.64;;;9.33;63.28
36138;BME280;67787;50.074;21.904;2023-05-23T03:37:48;98892.99;;;9.35;63.34
36138;BME280;67787;50.074;21.904;2023-05-23T03:40:16;98898.23;;;9.39;63.27
36138;BME280;67787;50.074;21.904;2023-05-23T03:42:43;98896.13;;;9.44;63.46
36138;BME280;67787;50.074;21.904;2023-05-23T03:45:11;98892.38;;;9.49;63.29
36138;BME280;67787;50.074;21.904;2023-05-23T03:47:39;98887.19;;;9.53;63.47
36138;BME280;67787;50.074;21.904;2023-05-23T03:50:07;98889.55;;;9.57;63.46
36138;BME280;67787;50.074;21.904;2023-05-23T03:52:35;98887.16;;;9.60;63.59
36138;BME280;67787;50.074;21.904;2023-05-23T03:55:04;98885.59;;;9.65;63.69
36138;BME280;67787;50.074;21.904;2023-05-23T03:57:31;98880.53;;;9.69;63.72
36138;BME280;67787;50.074;21.904;2023-05-23T03:59:59;98878.08;;;9.74;63.80
36138;BME280;67787;50.074;21.904;2023-05-23T04:02:27;98879.58;;;9.80;63.83
36138;BME280;67787;50.074;21.904;2023-05-23T04:04:56;98881.15;;;9.88;63.94
36138;BME280;67787;50.074;21.904;2023-05-23T04:07:24;98883.70;;;9.94;63.82
36138;BME280;67787;50.074;21.904;2023-05-23T04:09:53;98883.09;;;10.03;63.94
36138;BME280;67787;50.074;21.904;2023-05-23T04:12:38;98881.02;;;10.11;64.09
36138;BME280;67787;50.074;21.904;2023-05-23T04:15:08;98877.70;;;10.21;64.18
36138;BME280;67787;50.074;21.904;2023-05-23T04:17:36;98878.92;;;10.30;64.19
36138;BME280;67787;50.074;21.904;2023-05-23T04:20:06;98868.61;;;10.41;64.20
36138;BME280;67787;50.074;21.904;2023-05-23T04:22:36;98870.07;;;10.52;64.10
36138;BME280;67787;50.074;21.904;2023-05-23T04:25:04;98866.88;;;10.64;64.10
36138;BME280;67787;50.074;21.904;2023-05-23T04:27:33;98866.16;;;10.76;64.18
36138;BME280;67787;50.074;21.904;2023-05-23T04:30:01;98863.52;;;10.90;64.14
36138;BME280;67787;50.074;21.904;2023-05-23T04:32:29;98860.39;;;11.03;64.33
36138;BME280;67787;50.074;21.904;2023-05-23T04:34:57;98859.95;;;11.15;64.42
36138;BME280;67787;50.074;21.904;2023-05-23T04:37:25;98859.04;;;11.29;64.36
36138;BME280;67787;50.074;21.904;2023-05-23T04:39:53;98856.53;;;11.43;64.55
36138;BME280;67787;50.074;21.904;2023-05-23T04:42:20;98853.35;;;11.56;64.56
36138;BME280;67787;50.074;21.904;2023-05-23T04:44:52;98850.84;;;11.92;65.24
36138;BME280;67787;50.074;21.904;2023-05-23T04:47:23;98852.67;;;12.56;65.98
36138;BME280;67787;50.074;21.904;2023-05-23T04:49:55;98849.39;;;13.18;66.24
36138;BME280;67787;50.074;21.904;2023-05-23T04:52:24;98843.10;;;13.74;66.35
36138;BME280;67787;50.074;21.904;2023-05-23T04:54:54;98843.71;;;14.21;66.32
36138;BME280;67787;50.074;21.904;2023-05-23T04:57:22;98834.92;;;14.66;66.45
36138;BME280;67787;50.074;21.904;2023-05-23T04:59:51;98826.78;;;15.08;66.18
36138;BME280;67787;50.074;21.904;2023-05-23T05:02:19;98825.30;;;15.39;66.14
36138;BME280;67787;50.074;21.904;2023-05-23T05:04:47;98822.51;;;15.55;65.33
36138;BME280;67787;50.074;21.904;2023-05-23T05:07:15;98823.24;;;15.38;64.36
36138;BME280;67787;50.074;21.904;2023-05-23T05:09:44;98818.52;;;15.11;63.97
36138;BME280;67787;50.074;21.904;2023-05-23T05:12:12;98819.66;;;14.89;63.82
36138;BME280;67787;50.074;21.904;2023-05-23T05:14:40;98817.10;;;14.72;63.79
36138;BME280;67787;50.074;21.904;2023-05-23T05:17:08;98817.61;;;14.59;63.77
36138;BME280;67787;50.074;21.904;2023-05-23T05:19:36;98817.60;;;14.47;63.68
36138;BME280;67787;50.074;21.904;2023-05-23T05:22:04;98816.83;;;14.38;63.61
36138;BME280;67787;50.074;21.904;2023-05-23T05:24:31;98818.52;;;14.30;63.60
36138;BME280;67787;50.074;21.904;2023-05-23T05:27:00;98819.39;;;14.24;63.55
36138;BME280;67787;50.074;21.904;2023-05-23T05:29:28;98820.64;;;14.20;63.63
36138;BME280;67787;50.074;21.904;2023-05-23T05:31:56;98820.19;;;14.15;63.67
36138;BME280;67787;50.074;21.904;2023-05-23T05:34:23;98819.19;;;14.14;63.68
36138;BME280;67787;50.074;21.904;2023-05-23T05:36:51;98814.78;;;14.13;63.74
36138;BME280;67787;50.074;21.904;2023-05-23T05:39:23;98820.39;;;14.15;63.73
36138;BME280;67787;50.074;21.904;2023-05-23T05:41:53;98814.89;;;14.14;63.70
36138;BME280;67787;50.074;21.904;2023-05-23T05:44:21;98816.23;;;14.16;63.73
36138;BME280;67787;50.074;21.904;2023-05-23T05:46:49;98821.40;;;14.16;63.61
36138;BME280;67787;50.074;21.904;2023-05-23T05:49:17;98821.14;;;14.14;63.63
36138;BME280;67787;50.074;21.904;2023-05-23T05:51:44;98822.83;;;14.15;63.70
36138;BME280;67787;50.074;21.904;2023-05-23T05:54:12;98821.09;;;14.17;63.73
36138;BME280;67787;50.074;21.904;2023-05-23T05:56:40;98820.33;;;14.20;63.59
36138;BME280;67787;50.074;21.904;2023-05-23T05:59:09;98818.73;;;14.22;63.65
36138;BME280;67787;50.074;21.904;2023-05-23T06:01:36;98825.05;;;14.24;63.71
36138;BME280;67787;50.074;21.904;2023-05-23T06:04:04;98819.02;;;14.28;63.72
36138;BME280;67787;50.074;21.904;2023-05-23T06:06:32;98818.99;;;14.30;63.64
36138;BME280;67787;50.074;21.904;2023-05-23T06:09:00;98819.13;;;14.33;63.70
36138;BME280;67787;50.074;21.904;2023-05-23T06:11:29;98818.23;;;14.35;63.74
36138;BME280;67787;50.074;21.904;2023-05-23T06:13:57;98817.77;;;14.38;63.85
36138;BME280;67787;50.074;21.904;2023-05-23T06:16:25;98817.95;;;14.42;63.85
36138;BME280;67787;50.074;21.904;2023-05-23T06:18:53;98820.67;;;14.47;63.80
36138;BME280;67787;50.074;21.904;2023-05-23T06:21:21;98822.23;;;14.51;63.87
36138;BME280;67787;50.074;21.904;2023-05-23T06:23:49;98823.00;;;14.53;63.76
36138;BME280;67787;50.074;21.904;2023-05-23T06:26:17;98821.81;;;14.56;63.89
36138;BME280;67787;50.074;21.904;2023-05-23T06:28:45;98819.70;;;14.59;63.88
36138;BME280;67787;50.074;21.904;2023-05-23T06:31:13;98824.20;;;14.65;63.93
36138;BME280;67787;50.074;21.904;2023-05-23T06:33:41;98819.67;;;14.69;63.83
36138;BME280;67787;50.074;21.904;2023-05-23T06:36:09;98816.34;;;14.73;63.90
36138;BME280;67787;50.074;21.904;2023-05-23T06:38:37;98815.63;;;14.77;63.96
36138;BME280;67787;50.074;21.904;2023-05-23T06:41:06;98810.52;;;14.82;63.85
36138;BME280;67787;50.074;21.904;2023-05-23T06:43:34;98815.33;;;14.86;63.95
36138;BME280;67787;50.074;21.904;2023-05-23T06:46:02;98810.89;;;14.89;64.05
36138;BME280;67787;50.074;21.904;2023-05-23T06:48:30;98813.77;;;14.96;63.98
36138;BME280;67787;50.074;21.904;2023-05-23T06:50:57;98811.94;;;15.01;63.94
36138;BME280;67787;50.074;21.904;2023-05-23T06:53:25;98812.83;;;15.06;64.04
36138;BME280;67787;50.074;21.904;2023-05-23T06:55:54;98811.77;;;15.12;64.05
36138;BME280;67787;50.074;21.904;2023-05-23T06:58:22;98811.21;;;15.18;63.98
36138;BME280;67787;50.074;21.904;2023-05-23T07:00:51;98806.79;;;15.23;64.08
36138;BME280;67787;50.074;21.904;2023-05-23T07:03:19;98799.83;;;15.32;64.09
36138;BME280;67787;50.074;21.904;2023-05-23T07:05:47;98799.29;;;15.40;64.05
36138;BME280;67787;50.074;21.904;2023-05-23T07:08:15;98800.95;;;15.48;64.07
36138;BME280;67787;50.074;21.904;2023-05-23T07:10:44;98804.10;;;15.57;64.06
36138;BME280;67787;50.074;21.904;2023-05-23T07:13:11;98799.98;;;15.64;64.14
36138;BME280;67787;50.074;21.904;2023-05-23T07:15:39;98796.38;;;15.74;64.15
36138;BME280;67787;50.074;21.904;2023-05-23T07:18:07;98796.45;;;15.82;64.14
36138;BME280;67787;50.074;21.904;2023-05-23T07:20:35;98797.85;;;15.88;64.07
36138;BME280;67787;50.074;21.904;2023-05-23T07:23:02;98799.11;;;15.93;64.16
36138;BME280;67787;50.074;21.904;2023-05-23T07:25:31;98797.96;;;16.00;64.01
36138;BME280;67787;50.074;21.904;2023-05-23T07:27:59;98793.80;;;16.05;64.06
36138;BME280;67787;50.074;21.904;2023-05-23T07:30:27;98791.96;;;16.10;63.96
36138;BME280;67787;50.074;21.904;2023-05-23T07:32:57;98794.79;;;16.15;64.10
36138;BME280;67787;50.074;21.904;2023-05-23T07:35:25;98795.14;;;16.24;64.13
36138;BME280;67787;50.074;21.904;2023-05-23T07:37:53;98791.63;;;16.31;63.95
36138;BME280;67787;50.074;21.904;2023-05-23T07:40:23;98788.52;;;16.39;64.08
36138;BME280;67787;50.074;21.904;2023-05-23T07:42:51;98791.16;;;16.44;64.08
36138;BME280;67787;50.074;21.904;2023-05-23T07:45:19;98786.94;;;16.54;64.04
36138;BME280;67787;50.074;21.904;2023-05-23T07:47:47;98783.73;;;16.61;64.00
36138;BME280;67787;50.074;21.904;2023-05-23T07:50:16;98780.42;;;16.69;64.10
36138;BME280;67787;50.074;21.904;2023-05-23T07:52:44;98780.46;;;16.77;64.13
36138;BME280;67787;50.074;21.904;2023-05-23T07:55:12;98781.73;;;16.90;64.09
36138;BME280;67787;50.074;21.904;2023-05-23T07:57:41;98779.16;;;16.98;63.94
36138;BME280;67787;50.074;21.904;2023-05-23T08:00:09;98776.11;;;17.03;64.18
36138;BME280;67787;50.074;21.904;2023-05-23T08:02:38;98772.20;;;17.16;64.08
36138;BME280;67787;50.074;21.904;2023-05-23T08:05:06;98772.73;;;17.28;64.14
36138;BME280;67787;50.074;21.904;2023-05-23T08:07:35;98767.64;;;17.37;63.91
36138;BME280;67787;50.074;21.904;2023-05-23T08:10:03;98766.46;;;17.44;63.89
36138;BME280;67787;50.074;21.904;2023-05-23T08:12:32;98764.43;;;17.53;64.04
36138;BME280;67787;50.074;21.904;2023-05-23T08:15:00;98766.23;;;17.61;63.71
36138;BME280;67787;50.074;21.904;2023-05-23T08:17:28;98764.23;;;17.65;63.73
36138;BME280;67787;50.074;21.904;2023-05-23T08:19:56;98760.21;;;17.71;63.70
36138;BME280;67787;50.074;21.904;2023-05-23T08:22:23;98762.84;;;17.80;63.75
36138;BME280;67787;50.074;21.904;2023-05-23T08:24:51;98759.82;;;17.88;63.40
36138;BME280;67787;50.074;21.904;2023-05-23T08:27:20;98757.04;;;17.94;63.52
36138;BME280;67787;50.074;21.904;2023-05-23T08:29:48;98763.48;;;18.00;63.39
36138;BME280;67787;50.074;21.904;2023-05-23T08:32:15;98759.20;;;18.10;63.42
36138;BME280;67787;50.074;21.904;2023-05-23T08:34:43;98757.52;;;18.18;63.31
36138;BME280;67787;50.074;21.904;2023-05-23T08:37:11;98754.01;;;18.27;63.24
36138;BME280;67787;50.074;21.904;2023-05-23T08:39:39;98751.27;;;18.36;63.09
36138;BME280;67787;50.074;21.904;2023-05-23T08:42:08;98751.20;;;18.46;62.91
36138;BME280;67787;50.074;21.904;2023-05-23T08:44:37;98748.36;;;18.54;62.89
36138;BME280;67787;50.074;21.904;2023-05-23T08:47:06;98749.42;;;18.64;62.90
36138;BME280;67787;50.074;21.904;2023-05-23T08:49:36;98750.30;;;18.66;62.36
36138;BME280;67787;50.074;21.904;2023-05-23T08:52:09;98748.10;;;18.71;62.39
36138;BME280;67787;50.074;21.904;2023-05-23T08:54:39;98744.60;;;18.78;62.38
36138;BME280;67787;50.074;21.904;2023-05-23T08:57:09;98745.63;;;18.85;62.29
36138;BME280;67787;50.074;21.904;2023-05-23T08:59:37;98743.73;;;18.94;62.16
36138;BME280;67787;50.074;21.904;2023-05-23T09:02:09;98745.70;;;19.04;61.92
36138;BME280;67787;50.074;21.904;2023-05-23T09:04:38;98742.67;;;19.12;61.83
36138;BME280;67787;50.074;21.904;2023-05-23T09:07:06;98740.46;;;19.15;61.40
36138;BME280;67787;50.074;21.904;2023-05-23T09:09:34;98738.47;;;19.23;61.40
36138;BME280;67787;50.074;21.904;2023-05-23T09:12:03;98736.23;;;19.29;61.56
36138;BME280;67787;50.074;21.904;2023-05-23T09:14:31;98738.08;;;19.35;61.57
36138;BME280;67787;50.074;21.904;2023-05-23T09:17:00;98735.82;;;19.39;61.23
36138;BME280;67787;50.074;21.904;2023-05-23T09:19:31;98735.54;;;19.43;61.29
36138;BME280;67787;50.074;21.904;2023-05-23T09:22:01;98736.56;;;19.48;61.21
36138;BME280;67787;50.074;21.904;2023-05-23T09:24:35;98728.29;;;19.52;61.15
36138;BME280;67787;50.074;21.904;2023-05-23T09:27:05;98731.48;;;19.56;60.67
36138;BME280;67787;50.074;21.904;2023-05-23T09:29:37;98733.80;;;19.63;60.49
36138;BME280;67787;50.074;21.904;2023-05-23T09:32:13;98733.21;;;19.68;60.48
36138;BME280;67787;50.074;21.904;2023-05-23T09:34:53;98731.36;;;19.71;60.38
36138;BME280;67787;50.074;21.904;2023-05-23T09:37:37;98729.08;;;19.74;59.94
36138;BME280;67787;50.074;21.904;2023-05-23T09:40:07;98727.21;;;19.77;59.99
36138;BME280;67787;50.074;21.904;2023-05-23T09:42:44;98727.92;;;19.82;59.16
36138;BME280;67787;50.074;21.904;2023-05-23T09:45:13;98726.59;;;19.88;59.52
36138;BME280;67787;50.074;21.904;2023-05-23T09:47:52;98726.52;;;19.92;59.46
36138;BME280;67787;50.074;21.904;2023-05-23T09:50:21;98723.17;;;19.93;59.47
36138;BME280;67787;50.074;21.904;2023-05-23T09:52:49;98723.84;;;19.98;58.91
36138;BME280;67787;50.074;21.904;2023-05-23T09:55:18;98718.64;;;20.05;58.86
36138;BME280;67787;50.074;21.904;2023-05-23T09:57:53;98718.58;;;20.11;58.92
36138;BME280;67787;50.074;21.904;2023-05-23T10:00:23;98712.13;;;20.10;58.39
36138;BME280;67787;50.074;21.904;2023-05-23T10:03:11;98711.65;;;20.11;57.65
36138;BME280;67787;50.074;21.904;2023-05-23T10:05:50;98708.09;;;20.20;58.21
36138;BME280;67787;50.074;21.904;2023-05-23T10:13:25;98704.05;;;20.30;57.59
36138;BME280;67787;50.074;21.904;2023-05-23T10:15:59;98701.22;;;20.29;57.46
36138;BME280;67787;50.074;21.904;2023-05-23T10:18:34;98699.00;;;20.33;57.02
36138;BME280;67787;50.074;21.904;2023-05-23T10:21:10;98703.82;;;20.36;57.21
36138;BME280;67787;50.074;21.904;2023-05-23T10:23:39;98700.48;;;20.35;56.65
36138;BME280;67787;50.074;21.904;2023-05-23T10:26:07;98704.13;;;20.41;56.62
36138;BME280;67787;50.074;21.904;2023-05-23T10:28:36;98695.02;;;20.44;56.45
36138;BME280;67787;50.074;21.904;2023-05-23T10:31:04;98701.52;;;20.49;56.50
36138;BME280;67787;50.074;21.904;2023-05-23T10:33:36;98700.36;;;20.50;56.13
36138;BME280;67787;50.074;21.904;2023-05-23T10:36:18;98700.29;;;20.51;56.14
36138;BME280;67787;50.074;21.904;2023-05-23T10:38:58;98698.10;;;20.51;56.13
36138;BME280;67787;50.074;21.904;2023-05-23T10:46:56;98696.50;;;20.64;55.82
36138;BME280;67787;50.074;21.904;2023-05-23T10:49:45;98692.17;;;20.67;55.22
36138;BME280;67787;50.074;21.904;2023-05-23T10:52:16;98690.25;;;20.75;55.53
36138;BME280;67787;50.074;21.904;2023-05-23T10:54:50;98694.73;;;20.79;55.12
36138;BME280;67787;50.074;21.904;2023-05-23T10:57:19;98691.06;;;20.85;55.27
36138;BME280;67787;50.074;21.904;2023-05-23T10:59:49;98685.37;;;20.85;55.08
36138;BME280;67787;50.074;21.904;2023-05-23T11:02:24;98680.64;;;20.86;54.48
36138;BME280;67787;50.074;21.904;2023-05-23T11:07:42;98673.79;;;20.96;54.29
36138;BME280;67787;50.074;21.904;2023-05-23T11:10:11;98671.71;;;21.00;54.62
36138;BME280;67787;50.074;21.904;2023-05-23T11:12:43;98665.72;;;21.00;54.43
36138;BME280;67787;50.074;21.904;2023-05-23T11:17:53;98663.17;;;21.06;54.07
36138;BME280;67787;50.074;21.904;2023-05-23T11:20:29;98659.40;;;21.11;54.26
36138;BME280;67787;50.074;21.904;2023-05-23T11:22:59;98658.73;;;21.15;53.99
36138;BME280;67787;50.074;21.904;2023-05-23T11:28:11;98647.98;;;21.12;53.55
36138;BME280;67787;50.074;21.904;2023-05-23T11:30:40;98648.44;;;21.15;53.38
36138;BME280;67787;50.074;21.904;2023-05-23T11:33:10;98643.80;;;21.17;53.12
36138;BME280;67787;50.074;21.904;2023-05-23T11:35:46;98641.66;;;21.24;53.09
36138;BME280;67787;50.074;21.904;2023-05-23T11:38:15;98637.00;;;21.29;53.22
36138;BME280;67787;50.074;21.904;2023-05-23T11:40:45;98634.20;;;21.31;52.98
36138;BME280;67787;50.074;21.904;2023-05-23T11:43:16;98628.77;;;21.35;53.24
36138;BME280;67787;50.074;21.904;2023-05-23T11:45:44;98625.33;;;21.43;52.90
36138;BME280;67787;50.074;21.904;2023-05-23T11:48:15;98620.92;;;21.51;52.89
36138;BME280;67787;50.074;21.904;2023-05-23T11:50:51;98617.02;;;21.57;52.98
36138;BME280;67787;50.074;21.904;2023-05-23T11:53:21;98613.27;;;21.63;52.86
36138;BME280;67787;50.074;21.904;2023-05-23T11:55:56;98608.85;;;21.69;52.55
36138;BME280;67787;50.074;21.904;2023-05-23T11:58:29;98610.91;;;21.73;52.42
36138;BME280;67787;50.074;21.904;2023-05-23T12:00:59;98610.21;;;21.79;52.58
36138;BME280;67787;50.074;21.904;2023-05-23T12:03:28;98609.36;;;21.84;52.72
36138;BME280;67787;50.074;21.904;2023-05-23T12:05:59;98602.02;;;21.89;52.75
36138;BME280;67787;50.074;21.904;2023-05-23T12:08:28;98599.77;;;21.93;52.26
36138;BME280;67787;50.074;21.904;2023-05-23T12:10:59;98596.14;;;21.97;51.96
36138;BME280;67787;50.074;21.904;2023-05-23T12:13:28;98589.30;;;22.04;51.94
36138;BME280;67787;50.074;21.904;2023-05-23T12:15:59;98588.73;;;22.13;52.01
36138;BME280;67787;50.074;21.904;2023-05-23T12:18:29;98589.80;;;22.23;52.01
36138;BME280;67787;50.074;21.904;2023-05-23T12:21:02;98582.89;;;22.31;52.06
36138;BME280;67787;50.074;21.904;2023-05-23T12:23:34;98580.47;;;22.38;51.67
36138;BME280;67787;50.074;21.904;2023-05-23T12:26:06;98572.70;;;22.42;51.92
36138;BME280;67787;50.074;21.904;2023-05-23T12:28:39;98577.00;;;22.48;51.65
36138;BME280;67787;50.074;21.904;2023-05-23T12:31:20;98570.02;;;22.55;51.51
36138;BME280;67787;50.074;21.904;2023-05-23T12:33:51;98564.81;;;22.61;51.94
36138;BME280;67787;50.074;21.904;2023-05-23T12:36:23;98566.42;;;22.70;51.96
36138;BME280;67787;50.074;21.904;2023-05-23T12:38:51;98563.08;;;22.80;51.68
36138;BME280;67787;50.074;21.904;2023-05-23T12:41:19;98561.68;;;22.88;51.70
36138;BME280;67787;50.074;21.904;2023-05-23T12:43:50;98559.79;;;22.94;51.61
36138;BME280;67787;50.074;21.904;2023-05-23T12:46:25;98558.77;;;23.03;51.61
36138;BME280;67787;50.074;21.904;2023-05-23T12:48:55;98554.83;;;23.16;51.40
36138;BME280;67787;50.074;21.904;2023-05-23T12:51:22;98554.62;;;23.28;51.34
36138;BME280;67787;50.074;21.904;2023-05-23T12:53:50;98560.73;;;23.36;51.43
36138;BME280;67787;50.074;21.904;2023-05-23T12:56:19;98558.19;;;23.38;51.10
36138;BME280;67787;50.074;21.904;2023-05-23T12:58:47;98560.35;;;23.39;51.24
36138;BME280;67787;50.074;21.904;2023-05-23T13:01:16;98555.55;;;23.37;51.13
36138;BME280;67787;50.074;21.904;2023-05-23T13:03:44;98554.42;;;23.39;51.22
36138;BME280;67787;50.074;21.904;2023-05-23T13:06:12;98553.52;;;23.50;51.02
36138;BME280;67787;50.074;21.904;2023-05-23T13:08:40;98552.64;;;23.60;50.87
36138;BME280;67787;50.074;21.904;2023-05-23T13:11:09;98549.46;;;23.73;50.70
36138;BME280;67787;50.074;21.904;2023-05-23T13:13:37;98554.34;;;23.80;50.66
36138;BME280;67787;50.074;21.904;2023-05-23T13:16:06;98552.67;;;23.76;49.96
36138;BME280;67787;50.074;21.904;2023-05-23T13:18:34;98549.83;;;23.74;50.19
36138;BME280;67787;50.074;21.904;2023-05-23T13:21:02;98542.44;;;23.70;49.92
36138;BME280;67787;50.074;21.904;2023-05-23T13:23:30;98541.86;;;23.64;50.09
36138;BME280;67787;50.074;21.904;2023-05-23T13:25:57;98539.90;;;23.58;49.69
36138;BME280;67787;50.074;21.904;2023-05-23T13:28:26;98542.91;;;23.56;49.76